sensor_id;sensor_type;location;lat;lon;timestamp;P1;durP1;ratioP1;P2;durP2;ratioP2
64487;SDS011;50864;45.050;39.014;2023-05-10T00:00:15;13.10;;;10.55;;
64487;SDS011;50864;45.050;39.014;2023-05-10T00:02:41;16.92;;;13.15;;
64487;SDS011;50864;45.050;39.014;2023-05-10T00:05:07;14.00;;;11.43;;
64487;SDS011;50864;45.050;39.014;2023-05-10T00:07:32;13.15;;;11.77;;
64487;SDS011;50864;45.050;39.014;2023-05-10T00:09:58;13.45;;;11.02;;
64487;SDS011;50864;45.050;39.014;2023-05-10T00:12:24;12.32;;;10.43;;
64487;SDS011;50864;45.050;39.014;2023-05-10T00:14:50;11.45;;;9.98;;
64487;SDS011;50864;45.050;39.014;2023-05-10T00:17:16;18.62;;;15.00;;
64487;SDS011;50864;45.050;39.014;2023-05-10T00:19:41;17.00;;;13.98;;
64487;SDS011;50864;45.050;39.014;2023-05-10T00:22:07;16.37;;;13.75;;
64487;SDS011;50864;45.050;39.014;2023-05-10T00:24:33;11.23;;;9.63;;
64487;SDS011;50864;45.050;39.014;2023-05-10T00:26:59;11.60;;;10.27;;
64487;SDS011;50864;45.050;39.014;2023-05-10T00:29:25;11.60;;;10.00;;
64487;SDS011;50864;45.050;39.014;2023-05-10T00:31:53;10.63;;;8.75;;
64487;SDS011;50864;45.050;39.014;2023-05-10T00:34:19;15.45;;;12.60;;
64487;SDS011;50864;45.050;39.014;2023-05-10T00:36:45;9.95;;;8.80;;
64487;SDS011;50864;45.050;39.014;2023-05-10T00:39:11;15.00;;;12.88;;
64487;SDS011;50864;45.050;39.014;2023-05-10T00:41:37;10.13;;;8.65;;
64487;SDS011;50864;45.050;39.014;2023-05-10T00:44:03;10.60;;;9.38;;
64487;SDS011;50864;45.050;39.014;2023-05-10T00:46:29;10.82;;;9.60;;
64487;SDS011;50864;45.050;39.014;2023-05-10T00:48:57;12.57;;;11.20;;
64487;SDS011;50864;45.050;39.014;2023-05-10T00:51:23;11.25;;;10.13;;
64487;SDS011;50864;45.050;39.014;2023-05-10T00:53:49;11.63;;;10.43;;
64487;SDS011;50864;45.050;39.014;2023-05-10T00:56:15;11.23;;;10.10;;
64487;SDS011;50864;45.050;39.014;2023-05-10T00:58:41;13.65;;;12.23;;
64487;SDS011;50864;45.050;39.014;2023-05-10T01:01:08;11.43;;;10.25;;
64487;SDS011;50864;45.050;39.014;2023-05-10T01:03:34;18.10;;;15.93;;
64487;SDS011;50864;45.050;39.014;2023-05-10T01:06:00;13.00;;;11.57;;
64487;SDS011;50864;45.050;39.014;2023-05-10T01:08:26;11.95;;;10.80;;
64487;SDS011;50864;45.050;39.014;2023-05-10T01:10:52;13.98;;;12.45;;
64487;SDS011;50864;45.050;39.014;2023-05-10T01:13:23;12.43;;;11.20;;
64487;SDS011;50864;45.050;39.014;2023-05-10T01:15:54;14.77;;;13.30;;
64487;SDS011;50864;45.050;39.014;2023-05-10T01:18:21;16.15;;;14.48;;
64487;SDS011;50864;45.050;39.014;2023-05-10T01:20:47;19.30;;;16.73;;
64487;SDS011;50864;45.050;39.014;2023-05-10T01:23:23;19.45;;;16.75;;
64487;SDS011;50864;45.050;39.014;2023-05-10T01:26:00;14.77;;;13.25;;
64487;SDS011;50864;45.050;39.014;2023-05-10T01:34:18;14.13;;;12.65;;
64487;SDS011;50864;45.050;39.014;2023-05-10T01:36:58;11.48;;;10.30;;
64487;SDS011;50864;45.050;39.014;2023-05-10T01:39:27;8.52;;;7.65;;
64487;SDS011;50864;45.050;39.014;2023-05-10T01:46:49;9.13;;;8.20;;
64487;SDS011;50864;45.050;39.014;2023-05-10T01:49:26;12.73;;;11.20;;
64487;SDS011;50864;45.050;39.014;2023-05-10T01:51:57;14.38;;;10.88;;
64487;SDS011;50864;45.050;39.014;2023-05-10T01:54:24;10.18;;;6.57;;
64487;SDS011;50864;45.050;39.014;2023-05-10T01:56:52;13.35;;;11.23;;
64487;SDS011;50864;45.050;39.014;2023-05-10T01:59:20;8.02;;;7.07;;
64487;SDS011;50864;45.050;39.014;2023-05-10T02:01:46;9.10;;;7.40;;
64487;SDS011;50864;45.050;39.014;2023-05-10T02:04:14;11.77;;;10.60;;
64487;SDS011;50864;45.050;39.014;2023-05-10T02:06:41;10.82;;;9.73;;
64487;SDS011;50864;45.050;39.014;2023-05-10T02:09:07;20.62;;;15.50;;
64487;SDS011;50864;45.050;39.014;2023-05-10T02:11:34;12.05;;;10.88;;
64487;SDS011;50864;45.050;39.014;2023-05-10T02:14:00;13.48;;;12.13;;
64487;SDS011;50864;45.050;39.014;2023-05-10T02:16:27;13.38;;;12.13;;
64487;SDS011;50864;45.050;39.014;2023-05-10T02:18:53;12.60;;;11.35;;
64487;SDS011;50864;45.050;39.014;2023-05-10T02:21:19;16.92;;;15.20;;
64487;SDS011;50864;45.050;39.014;2023-05-10T02:23:46;15.20;;;13.77;;
64487;SDS011;50864;45.050;39.014;2023-05-10T02:26:12;16.12;;;14.02;;
64487;SDS011;50864;45.050;39.014;2023-05-10T02:28:39;15.68;;;14.15;;
64487;SDS011;50864;45.050;39.014;2023-05-10T02:31:06;17.35;;;15.70;;
64487;SDS011;50864;45.050;39.014;2023-05-10T02:33:32;15.52;;;13.98;;
64487;SDS011;50864;45.050;39.014;2023-05-10T02:35:59;16.30;;;14.70;;
64487;SDS011;50864;45.050;39.014;2023-05-10T02:38:25;14.57;;;13.23;;
64487;SDS011;50864;45.050;39.014;2023-05-10T02:40:52;17.67;;;15.95;;
64487;SDS011;50864;45.050;39.014;2023-05-10T02:43:18;16.45;;;14.93;;
64487;SDS011;50864;45.050;39.014;2023-05-10T02:45:44;19.02;;;17.15;;
64487;SDS011;50864;45.050;39.014;2023-05-10T02:48:11;18.37;;;16.60;;
64487;SDS011;50864;45.050;39.014;2023-05-10T02:50:37;15.88;;;14.43;;
64487;SDS011;50864;45.050;39.014;2023-05-10T02:53:06;16.95;;;15.40;;
64487;SDS011;50864;45.050;39.014;2023-05-10T02:55:38;18.90;;;17.00;;
64487;SDS011;50864;45.050;39.014;2023-05-10T02:58:05;18.15;;;16.48;;
64487;SDS011;50864;45.050;39.014;2023-05-10T03:00:31;20.27;;;18.20;;
64487;SDS011;50864;45.050;39.014;2023-05-10T03:02:57;25.37;;;21.45;;
64487;SDS011;50864;45.050;39.014;2023-05-10T03:05:24;21.92;;;19.67;;
64487;SDS011;50864;45.050;39.014;2023-05-10T03:07:50;25.10;;;20.70;;
64487;SDS011;50864;45.050;39.014;2023-05-10T03:10:16;18.92;;;17.17;;
64487;SDS011;50864;45.050;39.014;2023-05-10T03:15:32;16.80;;;15.30;;
64487;SDS011;50864;45.050;39.014;2023-05-10T03:18:01;21.27;;;19.30;;
64487;SDS011;50864;45.050;39.014;2023-05-10T03:20:47;29.02;;;23.40;;
64487;SDS011;50864;45.050;39.014;2023-05-10T03:23:21;25.27;;;20.33;;
64487;SDS011;50864;45.050;39.014;2023-05-10T03:25:48;20.12;;;16.58;;
64487;SDS011;50864;45.050;39.014;2023-05-10T03:28:16;24.52;;;17.55;;
64487;SDS011;50864;45.050;39.014;2023-05-10T03:30:43;19.62;;;16.75;;
64487;SDS011;50864;45.050;39.014;2023-05-10T03:33:09;14.80;;;13.43;;
64487;SDS011;50864;45.050;39.014;2023-05-10T03:35:37;20.27;;;18.23;;
64487;SDS011;50864;45.050;39.014;2023-05-10T03:38:03;27.62;;;22.95;;
64487;SDS011;50864;45.050;39.014;2023-05-10T03:40:28;22.50;;;20.45;;
64487;SDS011;50864;45.050;39.014;2023-05-10T03:43:00;25.12;;;22.67;;
64487;SDS011;50864;45.050;39.014;2023-05-10T03:45:26;27.65;;;24.80;;
64487;SDS011;50864;45.050;39.014;2023-05-10T03:47:51;28.92;;;25.98;;
64487;SDS011;50864;45.050;39.014;2023-05-10T03:50:18;31.37;;;28.15;;
64487;SDS011;50864;45.050;39.014;2023-05-10T03:52:45;32.58;;;29.17;;
64487;SDS011;50864;45.050;39.014;2023-05-10T03:55:11;33.53;;;29.92;;
64487;SDS011;50864;45.050;39.014;2023-05-10T03:57:37;35.17;;;31.30;;
64487;SDS011;50864;45.050;39.014;2023-05-10T04:00:05;47.85;;;33.00;;
64487;SDS011;50864;45.050;39.014;2023-05-10T04:02:40;36.50;;;31.37;;
64487;SDS011;50864;45.050;39.014;2023-05-10T04:05:07;48.53;;;33.53;;
64487;SDS011;50864;45.050;39.014;2023-05-10T04:07:33;34.13;;;29.90;;
64487;SDS011;50864;45.050;39.014;2023-05-10T04:09:58;36.40;;;30.77;;
64487;SDS011;50864;45.050;39.014;2023-05-10T04:12:24;35.83;;;30.25;;
64487;SDS011;50864;45.050;39.014;2023-05-10T04:14:50;34.70;;;29.12;;
64487;SDS011;50864;45.050;39.014;2023-05-10T04:17:16;31.90;;;28.52;;
64487;SDS011;50864;45.050;39.014;2023-05-10T04:19:42;35.25;;;28.15;;
64487;SDS011;50864;45.050;39.014;2023-05-10T04:22:08;36.28;;;30.48;;
64487;SDS011;50864;45.050;39.014;2023-05-10T04:24:34;33.20;;;29.42;;
64487;SDS011;50864;45.050;39.014;2023-05-10T04:27:00;33.70;;;29.58;;
64487;SDS011;50864;45.050;39.014;2023-05-10T04:29:26;37.72;;;30.55;;
64487;SDS011;50864;45.050;39.014;2023-05-10T04:31:52;33.88;;;29.85;;
64487;SDS011;50864;45.050;39.014;2023-05-10T04:34:20;37.67;;;31.02;;
64487;SDS011;50864;45.050;39.014;2023-05-10T04:36:45;29.02;;;21.77;;
64487;SDS011;50864;45.050;39.014;2023-05-10T04:39:11;21.02;;;16.25;;
64487;SDS011;50864;45.050;39.014;2023-05-10T04:41:37;12.60;;;11.43;;
64487;SDS011;50864;45.050;39.014;2023-05-10T04:44:03;18.15;;;16.17;;
64487;SDS011;50864;45.050;39.014;2023-05-10T04:46:29;33.10;;;28.73;;
64487;SDS011;50864;45.050;39.014;2023-05-10T04:48:55;34.40;;;30.30;;
64487;SDS011;50864;45.050;39.014;2023-05-10T04:51:21;40.03;;;32.17;;
64487;SDS011;50864;45.050;39.014;2023-05-10T04:53:46;34.10;;;29.33;;
64487;SDS011;50864;45.050;39.014;2023-05-10T04:56:12;40.58;;;30.15;;
64487;SDS011;50864;45.050;39.014;2023-05-10T04:58:38;27.55;;;24.48;;
64487;SDS011;50864;45.050;39.014;2023-05-10T05:01:07;21.48;;;17.77;;
64487;SDS011;50864;45.050;39.014;2023-05-10T05:03:36;18.00;;;16.17;;
64487;SDS011;50864;45.050;39.014;2023-05-10T05:06:02;23.85;;;19.67;;
64487;SDS011;50864;45.050;39.014;2023-05-10T05:08:28;28.17;;;25.40;;
64487;SDS011;50864;45.050;39.014;2023-05-10T05:10:54;34.60;;;28.90;;
64487;SDS011;50864;45.050;39.014;2023-05-10T05:13:20;30.12;;;26.87;;
64487;SDS011;50864;45.050;39.014;2023-05-10T05:15:45;30.12;;;26.35;;
64487;SDS011;50864;45.050;39.014;2023-05-10T05:18:12;34.08;;;28.62;;
64487;SDS011;50864;45.050;39.014;2023-05-10T05:20:37;19.92;;;17.80;;
64487;SDS011;50864;45.050;39.014;2023-05-10T05:23:03;37.42;;;28.38;;
64487;SDS011;50864;45.050;39.014;2023-05-10T05:25:29;32.67;;;27.60;;
64487;SDS011;50864;45.050;39.014;2023-05-10T05:27:55;32.95;;;27.62;;
64487;SDS011;50864;45.050;39.014;2023-05-10T05:30:20;32.05;;;27.75;;
64487;SDS011;50864;45.050;39.014;2023-05-10T05:32:46;38.75;;;29.17;;
64487;SDS011;50864;45.050;39.014;2023-05-10T05:35:12;29.17;;;26.10;;
64487;SDS011;50864;45.050;39.014;2023-05-10T05:37:38;45.55;;;31.83;;
64487;SDS011;50864;45.050;39.014;2023-05-10T05:40:04;43.17;;;31.17;;
64487;SDS011;50864;45.050;39.014;2023-05-10T05:42:30;44.33;;;31.08;;
64487;SDS011;50864;45.050;39.014;2023-05-10T05:44:56;41.50;;;29.37;;
64487;SDS011;50864;45.050;39.014;2023-05-10T05:47:22;36.58;;;29.50;;
64487;SDS011;50864;45.050;39.014;2023-05-10T05:49:48;36.17;;;28.33;;
64487;SDS011;50864;45.050;39.014;2023-05-10T05:52:14;32.83;;;27.23;;
64487;SDS011;50864;45.050;39.014;2023-05-10T05:54:40;40.88;;;29.80;;
64487;SDS011;50864;45.050;39.014;2023-05-10T05:57:05;29.77;;;26.73;;
64487;SDS011;50864;45.050;39.014;2023-05-10T05:59:31;41.80;;;30.62;;
64487;SDS011;50864;45.050;39.014;2023-05-10T06:01:57;32.58;;;28.30;;
64487;SDS011;50864;45.050;39.014;2023-05-10T06:04:23;32.92;;;27.65;;
64487;SDS011;50864;45.050;39.014;2023-05-10T06:06:49;31.00;;;27.62;;
64487;SDS011;50864;45.050;39.014;2023-05-10T06:09:14;17.67;;;15.48;;
64487;SDS011;50864;45.050;39.014;2023-05-10T06:11:40;11.57;;;10.43;;
64487;SDS011;50864;45.050;39.014;2023-05-10T06:14:06;8.07;;;6.60;;
64487;SDS011;50864;45.050;39.014;2023-05-10T06:16:36;7.72;;;6.50;;
64487;SDS011;50864;45.050;39.014;2023-05-10T06:19:02;6.90;;;6.12;;
64487;SDS011;50864;45.050;39.014;2023-05-10T06:21:27;7.00;;;5.68;;
64487;SDS011;50864;45.050;39.014;2023-05-10T06:23:53;7.10;;;5.20;;
64487;SDS011;50864;45.050;39.014;2023-05-10T06:26:19;9.93;;;8.07;;
64487;SDS011;50864;45.050;39.014;2023-05-10T06:28:46;5.30;;;4.55;;
64487;SDS011;50864;45.050;39.014;2023-05-10T06:31:12;7.55;;;4.90;;
64487;SDS011;50864;45.050;39.014;2023-05-10T06:33:38;9.18;;;7.00;;
64487;SDS011;50864;45.050;39.014;2023-05-10T06:36:03;8.07;;;5.75;;
64487;SDS011;50864;45.050;39.014;2023-05-10T06:38:29;8.30;;;6.97;;
64487;SDS011;50864;45.050;39.014;2023-05-10T06:40:55;7.40;;;5.22;;
64487;SDS011;50864;45.050;39.014;2023-05-10T06:43:21;9.27;;;8.35;;
64487;SDS011;50864;45.050;39.014;2023-05-10T06:45:47;14.15;;;12.70;;
64487;SDS011;50864;45.050;39.014;2023-05-10T06:48:13;7.60;;;6.82;;
64487;SDS011;50864;45.050;39.014;2023-05-10T06:50:39;5.87;;;5.12;;
64487;SDS011;50864;45.050;39.014;2023-05-10T06:53:04;9.55;;;8.05;;
64487;SDS011;50864;45.050;39.014;2023-05-10T06:55:30;6.72;;;4.70;;
64487;SDS011;50864;45.050;39.014;2023-05-10T06:57:56;11.32;;;10.20;;
64487;SDS011;50864;45.050;39.014;2023-05-10T07:00:22;9.90;;;8.90;;
64487;SDS011;50864;45.050;39.014;2023-05-10T07:02:48;6.60;;;4.20;;
64487;SDS011;50864;45.050;39.014;2023-05-10T07:05:14;3.60;;;2.45;;
64487;SDS011;50864;45.050;39.014;2023-05-10T07:07:40;4.07;;;2.92;;
64487;SDS011;50864;45.050;39.014;2023-05-10T07:10:06;6.72;;;5.00;;
64487;SDS011;50864;45.050;39.014;2023-05-10T07:12:33;4.95;;;3.65;;
64487;SDS011;50864;45.050;39.014;2023-05-10T07:14:58;4.82;;;2.17;;
64487;SDS011;50864;45.050;39.014;2023-05-10T07:17:24;2.45;;;1.80;;
64487;SDS011;50864;45.050;39.014;2023-05-10T07:19:50;3.37;;;2.00;;
64487;SDS011;50864;45.050;39.014;2023-05-10T07:22:16;3.45;;;2.00;;
64487;SDS011;50864;45.050;39.014;2023-05-10T07:24:42;8.02;;;3.25;;
64487;SDS011;50864;45.050;39.014;2023-05-10T07:27:08;2.95;;;1.70;;
64487;SDS011;50864;45.050;39.014;2023-05-10T07:29:34;2.37;;;1.75;;
64487;SDS011;50864;45.050;39.014;2023-05-10T07:32:00;2.20;;;1.60;;
64487;SDS011;50864;45.050;39.014;2023-05-10T07:34:26;1.25;;;1.25;;
64487;SDS011;50864;45.050;39.014;2023-05-10T07:36:52;2.03;;;1.42;;
64487;SDS011;50864;45.050;39.014;2023-05-10T07:39:18;2.55;;;1.60;;
64487;SDS011;50864;45.050;39.014;2023-05-10T07:41:45;3.45;;;1.80;;
64487;SDS011;50864;45.050;39.014;2023-05-10T07:44:11;3.53;;;1.70;;
64487;SDS011;50864;45.050;39.014;2023-05-10T07:46:37;2.87;;;1.80;;
64487;SDS011;50864;45.050;39.014;2023-05-10T07:49:03;2.50;;;1.67;;
64487;SDS011;50864;45.050;39.014;2023-05-10T07:51:29;4.87;;;1.80;;
64487;SDS011;50864;45.050;39.014;2023-05-10T07:53:55;4.15;;;1.80;;
64487;SDS011;50864;45.050;39.014;2023-05-10T07:56:25;2.12;;;1.70;;
64487;SDS011;50864;45.050;39.014;2023-05-10T07:58:52;3.75;;;1.75;;
64487;SDS011;50864;45.050;39.014;2023-05-10T08:01:18;3.95;;;2.00;;
64487;SDS011;50864;45.050;39.014;2023-05-10T08:03:45;3.65;;;1.55;;
64487;SDS011;50864;45.050;39.014;2023-05-10T08:06:11;5.22;;;2.92;;
64487;SDS011;50864;45.050;39.014;2023-05-10T08:08:37;3.65;;;2.33;;
64487;SDS011;50864;45.050;39.014;2023-05-10T08:11:03;3.25;;;1.98;;
64487;SDS011;50864;45.050;39.014;2023-05-10T08:13:29;2.58;;;1.73;;
64487;SDS011;50864;45.050;39.014;2023-05-10T08:15:55;4.32;;;2.03;;
64487;SDS011;50864;45.050;39.014;2023-05-10T08:18:21;7.35;;;4.22;;
64487;SDS011;50864;45.050;39.014;2023-05-10T08:20:47;2.87;;;1.87;;
64487;SDS011;50864;45.050;39.014;2023-05-10T08:23:12;3.25;;;1.92;;
64487;SDS011;50864;45.050;39.014;2023-05-10T08:25:39;3.65;;;2.12;;
64487;SDS011;50864;45.050;39.014;2023-05-10T08:28:05;5.03;;;2.20;;
64487;SDS011;50864;45.050;39.014;2023-05-10T08:30:30;3.25;;;2.03;;
64487;SDS011;50864;45.050;39.014;2023-05-10T08:32:56;4.57;;;2.08;;
64487;SDS011;50864;45.050;39.014;2023-05-10T08:35:22;6.30;;;2.10;;
64487;SDS011;50864;45.050;39.014;2023-05-10T08:37:48;2.33;;;1.90;;
64487;SDS011;50864;45.050;39.014;2023-05-10T08:40:14;4.07;;;2.05;;
64487;SDS011;50864;45.050;39.014;2023-05-10T08:42:43;3.95;;;1.83;;
64487;SDS011;50864;45.050;39.014;2023-05-10T08:45:10;3.60;;;2.10;;
64487;SDS011;50864;45.050;39.014;2023-05-10T08:47:37;2.72;;;1.90;;
64487;SDS011;50864;45.050;39.014;2023-05-10T08:50:03;2.00;;;1.80;;
64487;SDS011;50864;45.050;39.014;2023-05-10T08:52:29;2.97;;;1.70;;
64487;SDS011;50864;45.050;39.014;2023-05-10T08:54:56;4.43;;;2.40;;
64487;SDS011;50864;45.050;39.014;2023-05-10T08:57:22;2.87;;;1.95;;
64487;SDS011;50864;45.050;39.014;2023-05-10T08:59:48;3.05;;;1.80;;
64487;SDS011;50864;45.050;39.014;2023-05-10T09:02:14;3.35;;;1.80;;
64487;SDS011;50864;45.050;39.014;2023-05-10T09:04:39;2.83;;;1.75;;
64487;SDS011;50864;45.050;39.014;2023-05-10T09:07:06;3.10;;;1.80;;
64487;SDS011;50864;45.050;39.014;2023-05-10T09:09:32;2.85;;;1.80;;
64487;SDS011;50864;45.050;39.014;2023-05-10T09:11:58;3.60;;;2.22;;
64487;SDS011;50864;45.050;39.014;2023-05-10T09:14:25;2.40;;;1.50;;
64487;SDS011;50864;45.050;39.014;2023-05-10T09:16:51;2.35;;;1.40;;
64487;SDS011;50864;45.050;39.014;2023-05-10T09:19:19;1.85;;;1.48;;
64487;SDS011;50864;45.050;39.014;2023-05-10T09:21:44;1.52;;;1.40;;
64487;SDS011;50864;45.050;39.014;2023-05-10T09:24:11;3.15;;;1.58;;
64487;SDS011;50864;45.050;39.014;2023-05-10T09:26:45;3.20;;;1.50;;
64487;SDS011;50864;45.050;39.014;2023-05-10T09:29:12;2.33;;;1.40;;
64487;SDS011;50864;45.050;39.014;2023-05-10T09:34:10;5.40;;;1.70;;
64487;SDS011;50864;45.050;39.014;2023-05-10T09:36:36;4.50;;;1.60;;
64487;SDS011;50864;45.050;39.014;2023-05-10T09:39:01;2.60;;;1.70;;
64487;SDS011;50864;45.050;39.014;2023-05-10T09:41:27;2.22;;;1.52;;
64487;SDS011;50864;45.050;39.014;2023-05-10T09:43:56;2.28;;;1.50;;
64487;SDS011;50864;45.050;39.014;2023-05-10T09:46:22;3.05;;;1.60;;
64487;SDS011;50864;45.050;39.014;2023-05-10T09:48:48;2.30;;;1.60;;
64487;SDS011;50864;45.050;39.014;2023-05-10T09:51:20;1.30;;;1.20;;
64487;SDS011;50864;45.050;39.014;2023-05-10T09:53:46;3.72;;;1.30;;
64487;SDS011;50864;45.050;39.014;2023-05-10T09:56:12;1.30;;;1.20;;
64487;SDS011;50864;45.050;39.014;2023-05-10T09:58:38;2.67;;;1.50;;
64487;SDS011;50864;45.050;39.014;2023-05-10T10:01:04;5.05;;;2.85;;
64487;SDS011;50864;45.050;39.014;2023-05-10T10:03:30;2.90;;;1.62;;
64487;SDS011;50864;45.050;39.014;2023-05-10T10:05:56;3.95;;;1.60;;
64487;SDS011;50864;45.050;39.014;2023-05-10T10:08:22;4.95;;;1.75;;
64487;SDS011;50864;45.050;39.014;2023-05-10T10:10:48;4.25;;;2.17;;
64487;SDS011;50864;45.050;39.014;2023-05-10T10:13:13;2.17;;;1.50;;
64487;SDS011;50864;45.050;39.014;2023-05-10T10:15:40;1.45;;;1.30;;
64487;SDS011;50864;45.050;39.014;2023-05-10T10:18:07;2.05;;;1.45;;
64487;SDS011;50864;45.050;39.014;2023-05-10T10:20:37;3.10;;;1.50;;
64487;SDS011;50864;45.050;39.014;2023-05-10T10:23:03;3.15;;;1.60;;
64487;SDS011;50864;45.050;39.014;2023-05-10T10:25:29;2.90;;;1.62;;
64487;SDS011;50864;45.050;39.014;2023-05-10T10:27:59;2.55;;;1.60;;
64487;SDS011;50864;45.050;39.014;2023-05-10T10:30:34;2.12;;;1.58;;
64487;SDS011;50864;45.050;39.014;2023-05-10T10:33:06;3.85;;;1.73;;
64487;SDS011;50864;45.050;39.014;2023-05-10T10:35:35;1.77;;;1.40;;
64487;SDS011;50864;45.050;39.014;2023-05-10T10:38:01;3.83;;;1.60;;
64487;SDS011;50864;45.050;39.014;2023-05-10T10:40:28;3.30;;;1.73;;
64487;SDS011;50864;45.050;39.014;2023-05-10T10:42:54;3.70;;;1.50;;
64487;SDS011;50864;45.050;39.014;2023-05-10T10:45:20;1.73;;;1.45;;
64487;SDS011;50864;45.050;39.014;2023-05-10T10:47:46;1.65;;;1.52;;
64487;SDS011;50864;45.050;39.014;2023-05-10T10:50:12;3.30;;;1.80;;
64487;SDS011;50864;45.050;39.014;2023-05-10T10:52:39;2.83;;;1.85;;
64487;SDS011;50864;45.050;39.014;2023-05-10T10:55:15;2.00;;;1.60;;
64487;SDS011;50864;45.050;39.014;2023-05-10T10:57:44;3.45;;;1.60;;
64487;SDS011;50864;45.050;39.014;2023-05-10T11:02:52;4.93;;;1.60;;
64487;SDS011;50864;45.050;39.014;2023-05-10T11:07:58;3.33;;;1.87;;
64487;SDS011;50864;45.050;39.014;2023-05-10T11:10:24;4.20;;;2.50;;
64487;SDS011;50864;45.050;39.014;2023-05-10T11:13:11;15.27;;;4.50;;
64487;SDS011;50864;45.050;39.014;2023-05-10T11:15:39;4.90;;;1.80;;
64487;SDS011;50864;45.050;39.014;2023-05-10T11:18:25;2.33;;;1.60;;
64487;SDS011;50864;45.050;39.014;2023-05-10T11:20:51;3.17;;;1.73;;
64487;SDS011;50864;45.050;39.014;2023-05-10T11:23:17;3.37;;;1.50;;
64487;SDS011;50864;45.050;39.014;2023-05-10T11:25:43;2.75;;;1.55;;
64487;SDS011;50864;45.050;39.014;2023-05-10T11:28:10;2.90;;;1.80;;
64487;SDS011;50864;45.050;39.014;2023-05-10T11:30:38;3.20;;;1.90;;
64487;SDS011;50864;45.050;39.014;2023-05-10T11:33:03;3.50;;;1.52;;
64487;SDS011;50864;45.050;39.014;2023-05-10T11:35:30;4.05;;;1.80;;
64487;SDS011;50864;45.050;39.014;2023-05-10T11:37:56;2.53;;;1.60;;
64487;SDS011;50864;45.050;39.014;2023-05-10T11:40:21;3.47;;;1.70;;
64487;SDS011;50864;45.050;39.014;2023-05-10T11:42:50;2.95;;;1.50;;
64487;SDS011;50864;45.050;39.014;2023-05-10T11:45:16;2.97;;;1.62;;
64487;SDS011;50864;45.050;39.014;2023-05-10T11:47:42;2.60;;;1.62;;
64487;SDS011;50864;45.050;39.014;2023-05-10T11:50:09;3.65;;;1.80;;
64487;SDS011;50864;45.050;39.014;2023-05-10T11:52:35;4.10;;;1.60;;
64487;SDS011;50864;45.050;39.014;2023-05-10T11:55:02;3.25;;;1.77;;
64487;SDS011;50864;45.050;39.014;2023-05-10T11:57:28;5.50;;;3.17;;
64487;SDS011;50864;45.050;39.014;2023-05-10T11:59:54;3.87;;;2.12;;
64487;SDS011;50864;45.050;39.014;2023-05-10T12:02:21;1.60;;;1.50;;
64487;SDS011;50864;45.050;39.014;2023-05-10T12:04:47;4.32;;;1.90;;
64487;SDS011;50864;45.050;39.014;2023-05-10T12:07:13;3.53;;;1.70;;
64487;SDS011;50864;45.050;39.014;2023-05-10T12:09:48;3.80;;;1.73;;
64487;SDS011;50864;45.050;39.014;2023-05-10T12:12:34;3.10;;;1.60;;
64487;SDS011;50864;45.050;39.014;2023-05-10T12:17:28;2.92;;;1.55;;
64487;SDS011;50864;45.050;39.014;2023-05-10T12:19:58;5.53;;;1.75;;
64487;SDS011;50864;45.050;39.014;2023-05-10T12:22:24;3.97;;;1.40;;
64487;SDS011;50864;45.050;39.014;2023-05-10T12:24:50;3.03;;;1.87;;
64487;SDS011;50864;45.050;39.014;2023-05-10T12:27:16;2.33;;;1.60;;
64487;SDS011;50864;45.050;39.014;2023-05-10T12:29:41;4.12;;;1.98;;
64487;SDS011;50864;45.050;39.014;2023-05-10T12:32:09;3.25;;;1.70;;
64487;SDS011;50864;45.050;39.014;2023-05-10T12:34:35;4.65;;;1.70;;
64487;SDS011;50864;45.050;39.014;2023-05-10T12:37:02;3.97;;;1.77;;
64487;SDS011;50864;45.050;39.014;2023-05-10T12:39:41;1.70;;;1.50;;
64487;SDS011;50864;45.050;39.014;2023-05-10T12:42:07;2.67;;;1.52;;
64487;SDS011;50864;45.050;39.014;2023-05-10T12:44:33;2.85;;;1.50;;
64487;SDS011;50864;45.050;39.014;2023-05-10T12:46:59;3.92;;;1.92;;
64487;SDS011;50864;45.050;39.014;2023-05-10T12:49:25;2.28;;;1.73;;
64487;SDS011;50864;45.050;39.014;2023-05-10T12:51:50;3.22;;;1.42;;
64487;SDS011;50864;45.050;39.014;2023-05-10T12:54:16;3.97;;;1.60;;
64487;SDS011;50864;45.050;39.014;2023-05-10T12:56:43;3.90;;;1.65;;
64487;SDS011;50864;45.050;39.014;2023-05-10T12:59:10;2.65;;;1.80;;
64487;SDS011;50864;45.050;39.014;2023-05-10T13:01:36;2.45;;;1.62;;
64487;SDS011;50864;45.050;39.014;2023-05-10T13:04:01;2.17;;;1.42;;
64487;SDS011;50864;45.050;39.014;2023-05-10T13:06:27;2.08;;;1.60;;
64487;SDS011;50864;45.050;39.014;2023-05-10T13:08:53;2.65;;;1.60;;
64487;SDS011;50864;45.050;39.014;2023-05-10T13:11:19;2.95;;;1.80;;
64487;SDS011;50864;45.050;39.014;2023-05-10T13:13:45;5.18;;;2.40;;
64487;SDS011;50864;45.050;39.014;2023-05-10T13:16:11;6.18;;;2.15;;
64487;SDS011;50864;45.050;39.014;2023-05-10T13:18:37;3.33;;;1.62;;
64487;SDS011;50864;45.050;39.014;2023-05-10T13:21:03;5.03;;;1.90;;
64487;SDS011;50864;45.050;39.014;2023-05-10T13:23:30;5.03;;;1.90;;
64487;SDS011;50864;45.050;39.014;2023-05-10T13:25:56;2.72;;;1.70;;
64487;SDS011;50864;45.050;39.014;2023-05-10T13:28:22;6.40;;;1.75;;
64487;SDS011;50864;45.050;39.014;2023-05-10T13:30:48;3.65;;;1.95;;
64487;SDS011;50864;45.050;39.014;2023-05-10T13:33:14;3.83;;;2.00;;
64487;SDS011;50864;45.050;39.014;2023-05-10T13:35:39;3.30;;;1.85;;
64487;SDS011;50864;45.050;39.014;2023-05-10T13:38:05;3.95;;;1.98;;
64487;SDS011;50864;45.050;39.014;2023-05-10T13:40:33;3.47;;;2.12;;
64487;SDS011;50864;45.050;39.014;2023-05-10T13:42:59;3.60;;;1.95;;
64487;SDS011;50864;45.050;39.014;2023-05-10T13:45:25;4.68;;;2.05;;
64487;SDS011;50864;45.050;39.014;2023-05-10T13:47:51;2.37;;;1.70;;
64487;SDS011;50864;45.050;39.014;2023-05-10T13:50:17;3.78;;;1.80;;
64487;SDS011;50864;45.050;39.014;2023-05-10T13:52:43;2.95;;;1.85;;
64487;SDS011;50864;45.050;39.014;2023-05-10T13:55:09;2.53;;;1.70;;
64487;SDS011;50864;45.050;39.014;2023-05-10T13:57:37;2.05;;;1.50;;
64487;SDS011;50864;45.050;39.014;2023-05-10T14:00:03;2.87;;;1.70;;
64487;SDS011;50864;45.050;39.014;2023-05-10T14:02:33;2.72;;;1.90;;
64487;SDS011;50864;45.050;39.014;2023-05-10T14:04:59;3.75;;;2.10;;
64487;SDS011;50864;45.050;39.014;2023-05-10T14:07:25;2.58;;;1.77;;
64487;SDS011;50864;45.050;39.014;2023-05-10T14:09:51;4.05;;;2.00;;
64487;SDS011;50864;45.050;39.014;2023-05-10T14:12:17;2.78;;;1.80;;
64487;SDS011;50864;45.050;39.014;2023-05-10T14:14:42;6.15;;;2.10;;
64487;SDS011;50864;45.050;39.014;2023-05-10T14:17:08;2.35;;;1.80;;
64487;SDS011;50864;45.050;39.014;2023-05-10T14:19:34;3.08;;;1.90;;
64487;SDS011;50864;45.050;39.014;2023-05-10T14:22:00;3.70;;;1.90;;
64487;SDS011;50864;45.050;39.014;2023-05-10T14:24:26;8.10;;;3.75;;
64487;SDS011;50864;45.050;39.014;2023-05-10T14:26:52;3.60;;;2.17;;
64487;SDS011;50864;45.050;39.014;2023-05-10T14:29:21;5.87;;;2.28;;
64487;SDS011;50864;45.050;39.014;2023-05-10T14:31:47;2.08;;;1.60;;
64487;SDS011;50864;45.050;39.014;2023-05-10T14:34:13;7.53;;;2.08;;
64487;SDS011;50864;45.050;39.014;2023-05-10T14:36:38;3.10;;;1.92;;
64487;SDS011;50864;45.050;39.014;2023-05-10T14:39:04;6.45;;;1.80;;
64487;SDS011;50864;45.050;39.014;2023-05-10T14:41:32;4.93;;;1.95;;
64487;SDS011;50864;45.050;39.014;2023-05-10T14:43:58;4.10;;;1.83;;